Time;durP1;ratioP1;P1;durP2;ratioP2;P2;SDS_P1;SDS_P2;PMS_P1;PMS_P2;Temp;Humidity;BMP_temperature;BMP_pressure;BME280_temperature;BME280_humidity;BME280_pressure;Samples;Min_cycle;Max_cycle;Signal;HPM_P1;HPM_P2
2021/09/25 00:01:45;;;;;;;10.23;4.60;;;;;;;17.76;94.02;100810.66;5035690;28;20474;-72
2021/09/25 00:04:12;;;;;;;11.83;5.97;;;;;;;17.67;94.57;100807.22;5035856;28;20937;-72
2021/09/25 00:06:38;;;;;;;8.43;5.70;;;;;;;17.73;94.40;100805.81;5035700;28;20436;-72
2021/09/25 00:09:05;;;;;;;11.40;5.93;;;;;;;17.78;94.21;100818.53;5035840;28;20439;-72
2021/09/25 00:11:33;;;;;;;12.57;5.50;;;;;;;17.75;94.29;100802.75;5035757;28;20458;-72
2021/09/25 00:14:00;;;;;;;9.33;4.60;;;;;;;17.75;94.47;100806.31;5035766;28;20446;-72
2021/09/25 00:16:26;;;;;;;11.63;6.70;;;;;;;17.74;94.17;100815.66;5035804;28;20443;-72
2021/09/25 00:18:53;;;;;;;9.23;4.60;;;;;;;17.77;94.08;100811.44;5035747;28;20483;-72
2021/09/25 00:21:20;;;;;;;13.67;6.00;;;;;;;17.71;94.43;100810.03;5035604;28;20467;-73
2021/09/25 00:23:46;;;;;;;9.50;5.13;;;;;;;17.78;93.85;100808.34;5035625;28;20443;-71
2021/09/25 00:26:12;;;;;;;7.63;4.37;;;;;;;17.77;93.58;100809.50;5035583;28;20449;-73
2021/09/25 00:28:40;;;;;;;18.33;7.30;;;;;;;17.77;94.15;100804.03;5035531;28;20446;-73
2021/09/25 00:31:07;;;;;;;7.27;4.67;;;;;;;17.69;94.53;100804.13;5035451;28;20467;-72
2021/09/25 00:33:34;;;;;;;7.97;4.80;;;;;;;17.67;94.04;100809.16;5035441;28;20448;-73
2021/09/25 00:36:00;;;;;;;8.73;5.23;;;;;;;17.74;93.69;100814.88;5035420;28;20447;-73
2021/09/25 00:38:27;;;;;;;9.33;6.27;;;;;;;17.69;92.93;100804.91;5034982;28;21004;-73
2021/09/25 00:40:54;;;;;;;8.70;5.60;;;;;;;17.68;92.81;100808.81;5035250;28;20451;-72
2021/09/25 00:43:20;;;;;;;10.13;5.43;;;;;;;17.63;93.55;100800.81;5035239;28;20454;-72
2021/09/25 00:45:48;;;;;;;9.27;5.87;;;;;;;17.63;94.20;100809.84;5035268;28;20451;-71
2021/09/25 00:48:15;;;;;;;11.37;6.13;;;;;;;17.63;94.27;100806.28;5035239;28;20442;-71
2021/09/25 00:50:42;;;;;;;9.30;5.50;;;;;;;17.68;93.84;100803.31;5034513;28;20490;-70
2021/09/25 00:53:08;;;;;;;8.57;5.53;;;;;;;17.75;93.48;100803.59;5035024;28;20435;-69
2021/09/25 00:55:36;;;;;;;11.60;6.70;;;;;;;17.75;93.66;100803.59;5034712;28;20925;-69
2021/09/25 00:58:06;;;;;;;8.67;4.80;;;;;;;17.81;93.35;100813.16;5034828;28;20479;-71
2021/09/25 01:00:34;;;;;;;9.20;4.77;;;;;;;17.75;94.12;100809.06;5034790;28;20474;-70
2021/09/25 01:03:03;;;;;;;11.30;5.50;;;;;;;17.75;93.75;100819.19;5034870;28;20443;-71
2021/09/25 01:05:29;;;;;;;18.13;5.57;;;;;;;17.71;93.59;100815.50;5034267;28;20987;-71
2021/09/25 01:07:56;;;;;;;15.87;7.40;;;;;;;17.72;93.68;100814.41;5034315;28;20482;-70
2021/09/25 01:10:23;;;;;;;9.23;5.10;;;;;;;17.71;93.95;100813.59;5034565;28;20601;-70
2021/09/25 01:12:49;;;;;;;12.40;6.40;;;;;;;17.74;93.58;100812.13;5034342;28;20459;-69
2021/09/25 01:15:16;;;;;;;9.10;5.20;;;;;;;17.74;93.72;100815.66;5034372;28;20855;-71
2021/09/25 01:17:43;;;;;;;13.87;5.70;;;;;;;17.74;93.48;100812.91;5034388;28;20889;-70
2021/09/25 01:20:13;;;;;;;8.47;5.10;;;;;;;17.74;93.52;100820.34;5034444;28;20455;-70
2021/09/25 01:22:41;;;;;;;12.37;6.03;;;;;;;17.78;93.09;100822.06;5034483;28;20457;-69
2021/09/25 01:25:10;;;;;;;11.30;5.20;;;;;;;17.75;93.62;100820.03;5034128;28;20442;-71
2021/09/25 01:27:37;;;;;;;8.07;4.80;;;;;;;17.75;93.83;100813.72;5034342;28;20446;-71
2021/09/25 01:30:04;;;;;;;9.60;5.50;;;;;;;17.75;93.79;100814.53;5033956;28;20984;-71
2021/09/25 01:32:31;;;;;;;10.93;5.37;;;;;;;17.72;93.69;100806.97;5034312;28;20440;-71
2021/09/25 01:34:57;;;;;;;11.30;6.97;;;;;;;17.75;93.79;100817.28;5034343;28;20519;-71
2021/09/25 01:37:24;;;;;;;9.27;5.03;;;;;;;17.76;93.83;100813.41;5034192;28;20454;-70
2021/09/25 01:39:52;;;;;;;9.13;5.37;;;;;;;17.74;94.33;100817.59;5034161;28;20499;-69
2021/09/25 01:42:18;;;;;;;9.77;4.30;;;;;;;17.75;94.09;100819.19;5034086;28;20459;-70
2021/09/25 01:44:47;;;;;;;11.77;5.73;;;;;;;17.73;93.72;100826.94;5034237;28;20443;-71
2021/09/25 01:47:13;;;;;;;12.93;5.03;;;;;;;17.76;93.46;100818.88;5034000;28;20438;-71
2021/09/25 01:49:40;;;;;;;11.37;5.70;;;;;;;17.70;93.19;100817.47;5033874;28;20435;-70
2021/09/25 01:52:06;;;;;;;11.10;5.17;;;;;;;17.71;93.34;100815.50;5033955;28;20436;-71
2021/09/25 01:54:33;;;;;;;12.07;5.77;;;;;;;17.70;93.19;100817.47;5033870;28;20451;-71
2021/09/25 01:57:01;;;;;;;8.30;5.80;;;;;;;17.74;92.94;100810.19;5033797;28;20443;-71
2021/09/25 01:59:27;;;;;;;10.30;5.93;;;;;;;17.74;92.68;100812.91;5033733;28;20495;-71
2021/09/25 02:01:54;;;;;;;10.63;5.40;;;;;;;17.72;93.03;100811.66;5033783;28;20447;-70
2021/09/25 02:04:20;;;;;;;8.37;5.83;;;;;;;17.77;93.31;100823.22;5033740;28;20547;-71
2021/09/25 02:06:46;;;;;;;8.37;5.50;;;;;;;17.76;93.40;100813.41;5033646;28;20451;-71
2021/09/25 02:09:13;;;;;;;9.30;4.87;;;;;;;17.76;93.46;100818.88;5033607;28;20439;-71
2021/09/25 02:11:39;;;;;;;11.33;5.53;;;;;;;17.75;93.71;100817.28;5033624;28;20455;-71
2021/09/25 02:14:07;;;;;;;14.57;6.43;;;;;;;17.75;93.50;100822.75;5033531;28;20455;-70
2021/09/25 02:16:34;;;;;;;11.83;5.40;;;;;;;17.77;93.16;100822.41;5032690;28;20458;-70
2021/09/25 02:19:00;;;;;;;11.73;5.90;;;;;;;17.69;92.61;100818.59;5033456;28;20483;-71
2021/09/25 02:21:26;;;;;;;10.43;5.63;;;;;;;17.67;92.98;100825.59;5033483;28;20463;-69
2021/09/25 02:23:53;;;;;;;10.23;5.30;;;;;;;17.64;93.71;100818.84;5033461;28;20840;-69
2021/09/25 02:26:19;;;;;;;6.80;4.40;;;;;;;17.65;93.84;100825.91;5033221;28;20940;-70
2021/09/25 02:28:46;;;;;;;10.53;4.90;;;;;;;17.64;94.07;100824.31;5033396;28;20861;-70
2021/09/25 02:31:16;;;;;;;10.23;5.30;;;;;;;17.68;94.24;100829.91;5033239;28;20463;-69
2021/09/25 02:33:43;;;;;;;11.20;5.60;;;;;;;17.66;93.89;100830.25;5033326;28;20455;-70
2021/09/25 02:36:09;;;;;;;6.90;4.67;;;;;;;17.69;93.98;100829.56;5033365;28;20443;-71
2021/09/25 02:38:35;;;;;;;9.43;5.33;;;;;;;17.69;94.01;100834.25;5033255;28;20486;-70
2021/09/25 02:41:02;;;;;;;8.80;5.77;;;;;;;17.67;94.34;100834.59;5033208;28;20463;-70
2021/09/25 02:43:28;;;;;;;10.50;5.00;;;;;;;17.69;94.28;100826.81;5032964;28;20940;-70
2021/09/25 02:45:55;;;;;;;8.27;4.17;;;;;;;17.68;94.13;100827.97;5032902;28;20966;-71
2021/09/25 02:48:23;;;;;;;9.63;5.20;;;;;;;17.69;93.98;100834.25;5033262;28;20435;-70
2021/09/25 02:50:49;;;;;;;14.00;6.57;;;;;;;17.69;94.24;100826.81;5032822;28;20479;-71
2021/09/25 02:53:16;;;;;;;18.10;5.70;;;;;;;17.62;94.59;100823.88;5033145;28;20443;-70
2021/09/25 02:55:42;;;;;;;9.87;4.80;;;;;;;17.61;94.39;100827.75;5032900;28;20446;-69
2021/09/25 02:58:08;;;;;;;10.50;5.50;;;;;;;17.59;94.50;100827.28;5033021;28;20451;-70
2021/09/25 03:00:35;;;;;;;5.07;4.27;;;;;;;17.53;94.73;100826.72;5033015;28;20473;-71
2021/09/25 03:03:02;;;;;;;10.63;5.00;;;;;;;17.47;95.12;100832.75;5033054;28;20435;-70
2021/09/25 03:05:30;;;;;;;11.13;5.10;;;;;;;17.50;94.92;100834.81;5033045;28;20512;-70
2021/09/25 03:07:57;;;;;;;8.13;5.23;;;;;;;17.55;94.49;100837.34;5032978;28;20451;-71
2021/09/25 03:10:23;;;;;;;7.80;5.40;;;;;;;17.54;94.88;100831.06;5032615;28;20999;-70
2021/09/25 03:12:50;;;;;;;11.60;5.80;;;;;;;17.55;95.25;100829.13;5033012;28;20443;-69
2021/09/25 03:15:16;;;;;;;9.60;5.60;;;;;;;17.52;95.33;100836.06;5032908;28;20447;-71
2021/09/25 03:17:43;;;;;;;8.73;6.10;;;;;;;17.55;95.34;100843.59;5032899;28;20450;-71
2021/09/25 03:20:11;;;;;;;7.17;4.17;;;;;;;17.55;95.50;100842.81;5032894;28;20493;-67
2021/09/25 03:22:39;;;;;;;8.07;5.67;;;;;;;17.60;94.87;100850.81;5032830;28;20447;-67
2021/09/25 03:25:08;;;;;;;9.33;5.43;;;;;;;17.62;94.89;100854.00;5032810;28;20447;-68
2021/09/25 03:27:35;;;;;;;7.90;4.40;;;;;;;17.61;94.33;100852.38;5034595;28;20562;-71
2021/09/25 03:30:02;;;;;;;8.87;6.07;;;;;;;17.65;94.20;100856.84;5036530;28;20455;-71
2021/09/25 03:32:28;;;;;;;7.97;5.10;;;;;;;17.69;93.56;100856.97;5036664;28;20446;-71
2021/09/25 03:34:54;;;;;;;7.80;4.60;;;;;;;17.67;93.54;100858.47;5036531;28;20455;-72
2021/09/25 03:37:21;;;;;;;6.97;3.90;;;;;;;17.67;93.58;100867.47;5036538;28;20451;-72
2021/09/25 03:39:49;;;;;;;11.50;6.20;;;;;;;17.65;94.05;100858.78;5035899;28;20996;-72
2021/09/25 03:42:15;;;;;;;5.23;4.70;;;;;;;17.68;94.30;100858.13;5036420;28;20443;-72
2021/09/25 03:44:43;;;;;;;7.77;4.60;;;;;;;17.68;94.30;100863.59;5036420;28;20443;-72
2021/09/25 03:47:10;;;;;;;11.87;5.10;;;;;;;17.68;94.34;100869.06;5035993;28;20966;-72
2021/09/25 03:49:36;;;;;;;9.40;5.23;;;;;;;17.71;94.46;100878.53;5036059;28;20454;-73
2021/09/25 03:52:03;;;;;;;10.43;5.40;;;;;;;17.67;94.80;100880.38;5037750;28;20420;-72
2021/09/25 03:54:30;;;;;;;11.40;4.30;;;;;;;17.60;95.73;100880.94;5035842;28;20932;-71
2021/09/25 03:56:58;;;;;;;8.47;4.90;;;;;;;17.49;96.79;100877.84;5035813;28;20955;-73
2021/09/25 03:59:24;;;;;;;8.80;5.00;;;;;;;17.42;97.69;100885.81;5035968;28;20490;-72
2021/09/25 04:01:51;;;;;;;8.37;4.47;;;;;;;17.33;99.35;100885.91;5036030;28;20471;-72
2021/09/25 04:04:18;;;;;;;9.43;6.07;;;;;;;17.19;100.00;100890.09;5035698;28;20941;-72
2021/09/25 04:06:44;;;;;;;8.03;4.70;;;;;;;17.10;100.00;100887.47;5036043;28;20442;-72
2021/09/25 04:09:11;;;;;;;11.77;5.83;;;;;;;16.92;100.00;100888.78;5036020;28;20442;-71
2021/09/25 04:11:37;;;;;;;17.80;7.80;;;;;;;16.75;100.00;100885.03;5035809;28;20467;-72
2021/09/25 04:14:05;;;;;;;9.03;5.57;;;;;;;16.61;100.00;100892.69;5035953;28;20435;-71
2021/09/25 04:16:31;;;;;;;14.20;6.57;;;;;;;16.56;100.00;100890.19;5035834;28;20447;-71
2021/09/25 04:18:58;;;;;;;17.73;6.00;;;;;;;16.55;100.00;100888.56;5035716;28;20502;-72
2021/09/25 04:21:24;;;;;;;8.87;4.73;;;;;;;16.51;100.00;100887.63;5035596;28;20466;-71
2021/09/25 04:23:51;;;;;;;8.90;5.60;;;;;;;16.48;100.00;100891.03;5035752;28;20458;-74
2021/09/25 04:26:18;;;;;;;14.03;5.30;;;;;;;16.49;100.00;100895.38;5035403;28;20790;-74
2021/09/25 04:28:45;;;;;;;12.93;5.87;;;;;;;16.44;100.00;100895.56;5035341;28;20447;-74
2021/09/25 04:31:13;;;;;;;12.00;5.90;;;;;;;16.45;100.00;100897.16;5035501;28;20471;-71
2021/09/25 04:33:39;;;;;;;7.87;5.57;;;;;;;16.46;100.00;100901.50;5035430;28;20447;-73
2021/09/25 04:36:05;;;;;;;13.97;6.53;;;;;;;16.43;100.00;100897.50;5035460;28;20443;-74
2021/09/25 04:38:32;;;;;;;12.47;6.03;;;;;;;16.46;100.00;100901.50;5034673;28;20470;-72
2021/09/25 04:40:58;;;;;;;17.90;5.87;;;;;;;16.44;100.00;100904.56;5035260;28;20473;-71
2021/09/25 04:43:25;;;;;;;9.53;5.20;;;;;;;16.42;100.00;100900.56;5035332;28;20443;-72
2021/09/25 04:45:51;;;;;;;18.40;6.13;;;;;;;16.33;100.00;100895.94;5035559;28;20470;-71
2021/09/25 04:48:19;;;;;;;17.40;6.63;;;;;;;16.27;100.00;100896.47;5034865;28;20828;-71
2021/09/25 04:50:45;;;;;;;12.63;5.97;;;;;;;16.21;100.00;100897.81;5034856;28;20864;-70
2021/09/25 04:53:14;;;;;;;12.60;5.93;;;;;;;16.23;100.00;100898.28;5035234;28;20837;-71
2021/09/25 04:55:41;;;;;;;10.80;6.20;;;;;;;16.24;100.00;100889.72;5035077;28;20439;-71
2021/09/25 04:58:08;;;;;;;11.03;5.97;;;;;;;16.28;100.00;100901.59;5035097;28;20451;-70
2021/09/25 05:00:35;;;;;;;16.50;6.27;;;;;;;16.33;100.00;100898.66;5034854;28;20487;-70
2021/09/25 05:03:01;;;;;;;13.97;6.10;;;;;;;16.35;100.00;100890.16;5034968;28;20446;-72
2021/09/25 05:05:29;;;;;;;11.73;5.47;;;;;;;16.36;100.00;100894.50;5034871;28;20439;-72
2021/09/25 05:07:56;;;;;;;13.13;6.03;;;;;;;16.36;100.00;100895.28;5034762;28;20446;-70
2021/09/25 05:10:23;;;;;;;9.80;5.03;;;;;;;16.37;100.00;100896.88;5034737;28;20463;-71
2021/09/25 05:12:49;;;;;;;15.10;6.10;;;;;;;16.33;100.00;100903.34;5034388;28;20933;-68
2021/09/25 05:15:16;;;;;;;17.13;6.30;;;;;;;16.29;100.00;100897.75;5034647;28;20447;-69
2021/09/25 05:17:43;;;;;;;12.10;5.50;;;;;;;16.28;100.00;100890.66;5034554;28;20440;-66
2021/09/25 05:20:11;;;;;;;11.37;5.97;;;;;;;16.30;100.00;100891.16;5034323;28;20540;-68
2021/09/25 05:22:39;;;;;;;13.20;5.77;;;;;;;16.34;100.00;100903.03;5034474;28;20447;-69
2021/09/25 05:25:06;;;;;;;8.57;4.80;;;;;;;16.36;100.00;100900.75;5034515;28;20443;-69
2021/09/25 05:27:33;;;;;;;10.60;4.87;;;;;;;16.40;100.00;100909.09;5034363;28;20471;-69
2021/09/25 05:30:00;;;;;;;18.93;5.30;;;;;;;16.45;100.00;100913.56;5034291;28;20487;-69
2021/09/25 05:32:26;;;;;;;13.27;5.40;;;;;;;16.46;100.00;100902.28;5034248;28;20448;-69
2021/09/25 05:34:52;;;;;;;13.03;5.67;;;;;;;16.50;100.00;100910.63;5034327;28;20451;-68
2021/09/25 05:37:19;;;;;;;11.80;7.13;;;;;;;16.49;100.00;100906.31;5034323;28;20446;-69
2021/09/25 05:39:47;;;;;;;10.07;5.73;;;;;;;16.51;100.00;100909.50;5033699;28;21018;-69
2021/09/25 05:42:14;;;;;;;12.00;5.27;;;;;;;16.51;100.00;100904.03;5034105;28;20450;-68
2021/09/25 05:44:44;;;;;;;6.77;4.47;;;;;;;16.49;100.00;100909.84;5034036;28;20455;-68
2021/09/25 05:47:11;;;;;;;13.93;6.33;;;;;;;16.51;100.00;100909.50;5034080;28;20427;-68
2021/09/25 05:49:37;;;;;;;17.53;5.20;;;;;;;16.55;100.00;100913.16;5033741;28;20441;-68
2021/09/25 05:52:06;;;;;;;12.17;5.93;;;;;;;16.56;100.00;100917.53;5033090;28;20438;-68
2021/09/25 05:54:32;;;;;;;13.03;6.57;;;;;;;16.60;100.00;100918.44;5033898;28;20443;-69
2021/09/25 05:57:00;;;;;;;8.57;4.90;;;;;;;16.65;100.00;100910.06;5033840;28;20443;-68
2021/09/25 05:59:27;;;;;;;9.13;5.97;;;;;;;16.67;100.00;100915.97;5033729;28;20863;-69
2021/09/25 06:01:53;;;;;;;13.63;4.57;;;;;;;16.71;100.00;100924.31;5033766;28;20459;-68
2021/09/25 06:04:20;;;;;;;10.10;5.30;;;;;;;16.72;100.00;100921.28;5033745;28;20450;-68
2021/09/25 06:06:46;;;;;;;9.20;4.67;;;;;;;16.78;100.00;100921.88;5033676;28;20477;-68
2021/09/25 06:09:12;;;;;;;15.97;5.70;;;;;;;16.80;100.00;100920.41;5033676;28;20474;-67
2021/09/25 06:11:39;;;;;;;14.07;6.87;;;;;;;16.82;100.00;100923.63;5033549;28;20463;-67
2021/09/25 06:14:07;;;;;;;10.07;4.87;;;;;;;16.84;100.00;100935.03;5033621;28;20451;-68
2021/09/25 06:16:33;;;;;;;8.33;5.40;;;;;;;16.89;100.00;100932.06;5033283;28;20828;-67
2021/09/25 06:19:00;;;;;;;9.30;5.80;;;;;;;16.92;100.00;100929.81;5033534;28;20443;-68
2021/09/25 06:21:27;;;;;;;9.90;4.50;;;;;;;16.95;100.00;100934.59;5033439;28;20489;-68
2021/09/25 06:23:53;;;;;;;15.03;4.83;;;;;;;16.94;100.00;100939.28;5033306;28;20948;-67
2021/09/25 06:26:19;;;;;;;13.60;4.97;;;;;;;16.93;100.00;100936.88;5033381;28;20443;-70
2021/09/25 06:28:47;;;;;;;9.30;5.20;;;;;;;16.91;100.00;100937.22;5033354;28;20460;-69
2021/09/25 06:31:14;;;;;;;13.60;5.20;;;;;;;16.93;100.00;100939.63;5033282;28;20459;-67
2021/09/25 06:33:42;;;;;;;12.87;5.53;;;;;;;16.99;100.00;100941.81;5033332;28;20443;-69
2021/09/25 06:36:09;;;;;;;9.20;5.00;;;;;;;17.03;100.00;100942.72;5033342;28;20497;-69
2021/09/25 06:38:35;;;;;;;12.20;5.93;;;;;;;17.01;100.00;100944.22;5033227;28;20447;-67
2021/09/25 06:41:01;;;;;;;9.40;5.23;;;;;;;17.04;100.00;100933.38;5032733;28;20903;-68
2021/09/25 06:43:28;;;;;;;11.03;6.27;;;;;;;17.04;100.00;100938.06;5032833;28;20820;-67
2021/09/25 06:45:54;;;;;;;8.70;5.40;;;;;;;17.05;100.00;100937.75;5032626;28;20447;-66
2021/09/25 06:48:22;;;;;;;9.27;5.10;;;;;;;17.12;100.00;100937.19;5033048;28;20500;-68
2021/09/25 06:50:49;;;;;;;9.27;6.60;;;;;;;17.17;100.00;100934.22;5032541;28;20474;-66
2021/09/25 06:53:15;;;;;;;10.37;4.93;;;;;;;17.22;100.00;100942.25;5033128;28;20439;-67
2021/09/25 06:55:42;;;;;;;17.53;6.87;;;;;;;17.24;100.00;100948.19;5033190;28;20873;-68
2021/09/25 06:58:08;;;;;;;15.27;6.17;;;;;;;17.27;100.00;100943.97;5033059;28;20465;-68
2021/09/25 07:00:35;;;;;;;8.53;4.83;;;;;;;17.28;100.00;100946.38;5032868;28;20487;-67
2021/09/25 07:03:01;;;;;;;10.37;4.80;;;;;;;17.30;100.00;100951.50;5035570;28;20445;-68
2021/09/25 07:05:29;;;;;;;10.77;5.77;;;;;;;17.34;100.00;100947.75;5036973;28;20451;-67
2021/09/25 07:07:55;;;;;;;12.77;6.30;;;;;;;17.44;100.00;100951.19;5037163;28;20453;-70
2021/09/25 07:10:22;;;;;;;10.00;6.27;;;;;;;17.56;100.00;100964.94;5036852;28;20462;-69
2021/09/25 07:12:48;;;;;;;8.57;5.20;;;;;;;17.58;100.00;100962.66;5036904;28;20473;-65
2021/09/25 07:15:15;;;;;;;8.23;4.83;;;;;;;17.67;100.00;100955.16;5036818;28;20446;-64
2021/09/25 07:17:41;;;;;;;10.80;5.17;;;;;;;17.78;100.00;100959.06;5036807;28;20799;-67
2021/09/25 07:20:09;;;;;;;9.73;5.13;;;;;;;17.88;100.00;100966.88;5036674;28;20482;-71
2021/09/25 07:22:37;;;;;;;9.90;5.00;;;;;;;17.96;100.00;100967.88;5036733;28;20478;-69
2021/09/25 07:25:04;;;;;;;6.80;5.33;;;;;;;17.98;100.00;100975.78;5036702;28;20493;-67
2021/09/25 07:27:30;;;;;;;9.90;5.10;;;;;;;17.99;100.00;100977.38;5036618;28;20451;-69
2021/09/25 07:29:57;;;;;;;11.50;6.00;;;;;;;17.97;100.00;100979.66;5036186;28;20463;-68
2021/09/25 07:32:24;;;;;;;10.67;6.23;;;;;;;18.00;100.00;100978.97;5036522;28;20838;-69
2021/09/25 07:34:50;;;;;;;16.57;6.67;;;;;;;18.07;100.00;100985.50;5036524;28;20451;-69
2021/09/25 07:37:17;;;;;;;11.20;6.53;;;;;;;18.15;100.00;100984.59;5036490;28;20454;-70
2021/09/25 07:39:44;;;;;;;6.93;4.50;;;;;;;18.13;100.00;100983.31;5036294;28;20439;-69
2021/09/25 07:42:11;;;;;;;11.27;5.60;;;;;;;18.25;100.00;100985.28;5036371;28;20438;-69
2021/09/25 07:44:37;;;;;;;9.40;4.63;;;;;;;18.34;100.00;100989.50;5036476;28;20451;-68
2021/09/25 07:47:04;;;;;;;8.07;5.50;;;;;;;18.41;100.00;100995.19;5036284;28;20447;-69
2021/09/25 07:49:31;;;;;;;10.30;6.33;;;;;;;18.44;100.00;100992.91;5035952;28;20443;-69
2021/09/25 07:51:57;;;;;;;18.07;5.37;;;;;;;18.38;100.00;100995.09;5035956;28;20912;-69
2021/09/25 07:54:24;;;;;;;13.00;6.33;;;;;;;18.34;100.00;101000.47;5036265;28;20442;-68
2021/09/25 07:56:51;;;;;;;10.07;5.90;;;;;;;18.34;99.97;100999.66;5036101;28;20450;-68
2021/09/25 07:59:18;;;;;;;11.10;5.67;;;;;;;18.40;99.99;101009.25;5036051;28;20450;-69
2021/09/25 08:01:44;;;;;;;8.13;5.10;;;;;;;18.46;100.00;101007.91;5035539;28;20540;-68
2021/09/25 08:04:11;;;;;;;9.00;4.97;;;;;;;18.48;99.43;101021.25;5036003;28;20447;-69
2021/09/25 08:06:37;;;;;;;9.00;5.03;;;;;;;18.44;99.30;101012.91;5035563;28;20443;-68
2021/09/25 08:09:03;;;;;;;9.00;5.10;;;;;;;18.47;99.65;101025.16;5035853;28;20439;-68
2021/09/25 08:11:30;;;;;;;11.27;6.30;;;;;;;18.46;100.00;101016.13;5035709;28;20455;-69
2021/09/25 08:13:58;;;;;;;7.53;5.20;;;;;;;18.54;99.34;101011.63;5034707;28;20446;-69
2021/09/25 08:16:24;;;;;;;9.03;5.53;;;;;;;18.54;99.74;101022.63;5035747;28;20462;-70
2021/09/25 08:18:51;;;;;;;10.53;5.03;;;;;;;18.56;100.00;101020.34;5035730;28;20443;-68
2021/09/25 08:21:17;;;;;;;7.87;4.80;;;;;;;18.55;99.55;101021.47;5035145;28;21040;-68
2021/09/25 08:23:44;;;;;;;7.83;5.33;;;;;;;18.45;99.70;101011.75;5035575;28;20443;-68
2021/09/25 08:26:10;;;;;;;8.90;4.70;;;;;;;18.41;99.77;101028.09;5035539;28;20447;-68
2021/09/25 08:28:37;;;;;;;10.23;4.90;;;;;;;18.27;100.00;101027.66;5035512;28;20443;-68
2021/09/25 08:31:04;;;;;;;12.20;5.47;;;;;;;18.22;100.00;101027.09;5035405;28;20470;-69
2021/09/25 08:33:31;;;;;;;10.40;5.30;;;;;;;18.24;100.00;101033.00;5035069;28;20937;-69
2021/09/25 08:35:57;;;;;;;10.00;5.33;;;;;;;18.33;100.00;101022.75;5035344;28;20447;-69
2021/09/25 08:38:24;;;;;;;9.00;5.87;;;;;;;18.46;100.00;101029.00;5035794;28;20439;-69
2021/09/25 08:40:51;;;;;;;10.00;5.40;;;;;;;18.64;100.00;101033.94;5035167;28;20494;-69
2021/09/25 08:43:18;;;;;;;12.93;6.50;;;;;;;18.75;99.28;101037.03;5035069;28;21031;-70
2021/09/25 08:45:47;;;;;;;13.13;5.57;;;;;;;18.84;98.94;101040.44;5035275;28;20450;-71
2021/09/25 08:48:15;;;;;;;16.83;5.90;;;;;;;18.89;98.58;101034.72;5035161;28;20452;-71
2021/09/25 08:50:41;;;;;;;14.83;5.63;;;;;;;18.99;99.37;101046.38;5034735;28;20473;-69
2021/09/25 08:53:08;;;;;;;8.30;5.90;;;;;;;19.02;97.98;101048.44;5035087;28;20450;-69
2021/09/25 08:55:35;;;;;;;12.73;6.50;;;;;;;19.02;97.64;101048.44;5034910;28;20450;-70
2021/09/25 08:58:02;;;;;;;12.50;6.60;;;;;;;18.94;97.17;101060.34;5035027;28;20463;-70
2021/09/25 09:00:36;;;;;;;10.60;6.50;;;;;;;18.86;97.34;101059.34;5034774;28;20509;-70
2021/09/25 09:03:29;;;;;;;9.83;6.07;;;;;;;18.84;97.27;101050.63;5034692;28;20423;-69
2021/09/25 09:06:05;;;;;;;10.17;6.00;;;;;;;18.78;97.24;101057.53;5034872;28;20431;-70
2021/09/25 09:08:32;;;;;;;10.40;5.60;;;;;;;18.75;98.21;101052.72;5034756;28;20434;-71
2021/09/25 09:10:59;;;;;;;10.03;5.40;;;;;;;18.73;98.99;101052.25;5034644;28;20455;-70
2021/09/25 09:13:26;;;;;;;11.53;5.40;;;;;;;18.66;98.01;101056.34;5034653;28;20439;-66
2021/09/25 09:15:53;;;;;;;10.50;4.90;;;;;;;18.67;97.94;101051.66;5034655;28;20914;-69
2021/09/25 09:18:22;;;;;;;8.07;5.03;;;;;;;18.69;97.88;101054.91;5034587;28;20454;-69
2021/09/25 09:21:09;;;;;;;15.40;5.70;;;;;;;18.64;98.96;101058.63;5034024;28;20992;-69
2021/09/25 09:23:37;;;;;;;9.93;5.60;;;;;;;18.64;99.98;101063.34;5034867;28;20493;-70
2021/09/25 09:26:06;;;;;;;11.37;6.67;;;;;;;18.56;100.00;101065.03;5034252;28;20443;-70
2021/09/25 09:28:35;;;;;;;13.60;6.70;;;;;;;18.54;100.00;101069.25;5034413;28;20451;-70
2021/09/25 09:31:04;;;;;;;9.87;5.33;;;;;;;18.56;100.00;101077.97;5034258;28;20465;-70
2021/09/25 09:33:38;;;;;;;7.30;4.90;;;;;;;18.49;100.00;101073.03;5034200;28;20454;-70
2021/09/25 09:36:24;;;;;;;10.90;5.70;;;;;;;18.45;100.00;101077.59;5034209;28;20434;-68
2021/09/25 09:38:54;;;;;;;10.63;6.47;;;;;;;18.45;100.00;101083.09;5034215;28;20463;-69
2021/09/25 09:41:24;;;;;;;12.60;6.60;;;;;;;18.37;100.00;101081.25;5034029;28;20487;-69
2021/09/25 09:43:51;;;;;;;9.80;6.30;;;;;;;18.25;100.00;101082.06;5034180;28;20433;-68
2021/09/25 09:46:18;;;;;;;12.97;6.30;;;;;;;18.14;100.00;101089.91;5034127;28;20447;-69
2021/09/25 09:48:46;;;;;;;10.27;6.10;;;;;;;17.96;100.00;101083.00;5033536;28;20450;-69
2021/09/25 09:51:45;;;;;;;9.33;6.63;;;;;;;17.82;100.00;101080.56;5058434;22;20490;-81
2021/09/25 09:54:31;;;;;;;11.00;6.17;;;;;;;17.84;100.00;101080.22;5060182;28;20546;-79
2021/09/25 09:56:59;;;;;;;15.97;7.47;;;;;;;17.87;100.00;101090.53;5066178;22;20987;-64
2021/09/25 09:59:26;;;;;;;12.20;7.17;;;;;;;17.97;100.00;101089.28;5034066;28;20427;-64
2021/09/25 10:01:53;;;;;;;11.07;6.77;;;;;;;18.05;100.00;101096.63;5033453;28;21015;-64
2021/09/25 10:04:21;;;;;;;14.17;7.43;;;;;;;18.11;100.00;101100.78;5033519;28;20817;-64
2021/09/25 10:06:51;;;;;;;9.80;6.00;;;;;;;18.12;100.00;101105.91;5033798;28;20435;-64
2021/09/25 10:09:19;;;;;;;10.83;6.07;;;;;;;18.19;100.00;101088.88;5033735;28;20454;-65
2021/09/25 10:11:48;;;;;;;12.40;7.10;;;;;;;18.31;100.00;101088.91;5033588;28;20456;-64
2021/09/25 10:14:17;;;;;;;13.93;6.67;;;;;;;18.51;100.00;101083.69;5033571;28;20443;-66
2021/09/25 10:16:45;;;;;;;15.50;7.60;;;;;;;18.83;100.00;101082.78;5033681;28;20470;-65
2021/09/25 10:19:12;;;;;;;16.83;8.10;;;;;;;19.11;100.00;101098.53;5033621;28;20538;-65
2021/09/25 10:21:39;;;;;;;14.37;8.70;;;;;;;19.24;100.00;101088.31;5033542;28;20489;-65
2021/09/25 10:24:10;;;;;;;11.47;7.17;;;;;;;19.37;100.00;101090.69;5033525;28;20450;-65
2021/09/25 10:26:43;;;;;;;17.17;8.50;;;;;;;19.45;100.00;101088.94;5033654;28;20430;-65
2021/09/25 10:29:10;;;;;;;12.53;7.17;;;;;;;19.40;100.00;101089.97;5033492;28;20440;-65
2021/09/25 10:31:37;;;;;;;12.37;7.10;;;;;;;19.60;100.00;101090.97;5033044;28;20931;-65
2021/09/25 10:34:09;;;;;;;13.60;8.40;;;;;;;19.50;100.00;101096.94;5033363;28;20439;-65
2021/09/25 10:36:41;;;;;;;11.93;6.70;;;;;;;19.56;100.00;101100.22;5032809;28;20438;-65
2021/09/25 10:39:25;;;;;;;12.97;6.47;;;;;;;19.67;100.00;101100.56;5033385;28;20423;-65
2021/09/25 10:42:01;;;;;;;16.00;7.30;;;;;;;19.66;100.00;101097.03;5033236;28;20490;-65
2021/09/25 10:44:29;;;;;;;12.00;6.60;;;;;;;19.59;100.00;101102.28;5033267;28;20450;-65
2021/09/25 10:47:08;;;;;;;11.93;7.20;;;;;;;19.47;100.00;101107.81;5033248;28;20454;-66
2021/09/25 10:49:54;;;;;;;7.30;5.40;;;;;;;19.49;100.00;101102.78;5033379;28;20442;-67
2021/09/25 10:52:26;;;;;;;6.50;4.70;;;;;;;19.71;100.00;101104.22;5033255;28;20459;-66
2021/09/25 10:55:26;;;;;;;12.77;7.70;;;;;;;19.98;100.00;101108.09;5033183;28;20431;-65
2021/09/25 10:58:11;;;;;;;12.60;5.90;;;;;;;20.22;100.00;101107.16;5032773;28;20459;-65
2021/09/25 11:00:52;;;;;;;4.10;3.60;;;;;;;20.33;100.00;101108.22;5032867;28;20439;-65
2021/09/25 11:03:56;;;;;;;6.27;4.50;;;;;;;20.36;99.39;101108.34;5032717;28;20442;-65
2021/09/25 11:06:25;;;;;;;7.43;5.50;;;;;;;20.51;96.41;101114.22;5032984;28;20478;-66
2021/09/25 11:08:54;;;;;;;7.33;4.40;;;;;;;20.73;96.20;101119.09;5032985;28;20446;-65
2021/09/25 11:11:33;;;;;;;6.80;5.63;;;;;;;20.65;94.61;101117.31;5032836;28;20462;-65
2021/09/25 11:14:24;;;;;;;5.67;4.27;;;;;;;20.61;94.12;101121.94;5032985;28;20477;-65
2021/09/25 11:16:57;;;;;;;10.10;4.63;;;;;;;20.71;94.77;101124.13;5032920;28;20432;-65
2021/09/25 11:19:38;;;;;;;6.13;5.13;;;;;;;20.65;93.93;101109.84;5032892;28;20428;-65
2021/09/25 11:22:07;;;;;;;9.70;5.67;;;;;;;20.89;93.16;101113.53;5032470;28;20886;-65